Time;durP1;ratioP1;P1;durP2;ratioP2;P2;SDS_P1;SDS_P2;PMS_P1;PMS_P2;Temp;Humidity;BMP_temperature;BMP_pressure;BME280_temperature;BME280_humidity;BME280_pressure;Samples;Min_cycle;Max_cycle;Signal;HPM_P1;HPM_P2
2022/08/05 00:02:31;;;;;;;4.45;1.73;;;21.10;99.90;;;;;;5222990;28;20029;-62
2022/08/05 00:05:02;;;;;;;2.85;1.50;;;21.20;99.90;;;;;;5230205;28;20045;-61
2022/08/05 00:07:36;;;;;;;2.15;1.70;;;21.30;99.90;;;;;;5239613;28;20104;-61
2022/08/05 00:10:10;;;;;;;2.25;1.63;;;21.20;99.90;;;;;;5222810;28;20055;-62
2022/08/05 00:12:42;;;;;;;2.17;2.00;;;21.20;99.90;;;;;;5239732;28;20044;-62
2022/08/05 00:15:14;;;;;;;2.63;1.80;;;21.20;99.90;;;;;;5221147;28;20055;-61
2022/08/05 00:17:45;;;;;;;3.38;2.05;;;21.10;99.90;;;;;;5221903;28;20037;-62
2022/08/05 00:20:16;;;;;;;2.58;1.80;;;21.10;99.90;;;;;;5222035;28;20039;-62
2022/08/05 00:22:47;;;;;;;2.17;1.80;;;21.00;99.90;;;;;;5238883;28;20024;-61
2022/08/05 00:25:19;;;;;;;1.88;1.55;;;21.00;99.90;;;;;;5239947;28;20020;-62
2022/08/05 00:27:52;;;;;;;4.75;2.03;;;21.00;99.90;;;;;;5222587;28;20031;-61
2022/08/05 00:30:28;;;;;;;3.00;2.30;;;20.90;99.90;;;;;;5222110;28;20028;-61
2022/08/05 00:33:00;;;;;;;2.70;2.03;;;20.90;99.90;;;;;;5240761;28;20017;-62
2022/08/05 00:35:31;;;;;;;2.67;2.20;;;20.80;99.90;;;;;;5221948;28;20306;-62
2022/08/05 00:38:02;;;;;;;2.60;1.80;;;20.90;99.90;;;;;;5239707;28;20028;-62
2022/08/05 00:40:46;;;;;;;3.28;1.92;;;20.80;99.90;;;;;;5205037;28;20032;-62
2022/08/05 00:43:24;;;;;;;2.78;1.92;;;20.80;99.90;;;;;;5239731;28;20028;-61
2022/08/05 00:45:57;;;;;;;2.80;2.55;;;20.80;99.90;;;;;;5222041;28;20055;-61
2022/08/05 00:48:34;;;;;;;2.15;1.95;;;20.80;99.90;;;;;;5239665;28;20021;-62
2022/08/05 00:51:05;;;;;;;2.13;1.90;;;20.80;99.90;;;;;;5221396;28;20037;-62
2022/08/05 00:53:36;;;;;;;2.33;1.70;;;20.80;99.90;;;;;;5205203;28;20035;-62
2022/08/05 00:56:13;;;;;;;2.80;1.98;;;20.80;99.90;;;;;;5239492;28;20025;-62
2022/08/05 00:58:44;;;;;;;1.73;1.55;;;20.80;99.90;;;;;;5237745;28;20035;-62
2022/08/05 01:01:15;;;;;;;2.35;1.73;;;20.80;99.90;;;;;;5204824;28;20047;-62
2022/08/05 01:03:50;;;;;;;4.30;1.55;;;20.80;99.90;;;;;;5205835;28;20187;-62
2022/08/05 01:09:52;;;;;;;1.67;1.58;;;20.70;99.90;;;;;;5239174;28;20021;-62
2022/08/05 01:12:26;;;;;;;5.25;2.22;;;20.70;99.90;;;;;;5238785;28;20036;-62
2022/08/05 01:15:08;;;;;;;;;;;20.70;99.90;;;;;;5221771;28;20035;-62
2022/08/05 01:17:55;;;;;;;1.70;1.60;;;20.70;99.90;;;;;;5238796;28;19907;-61
2022/08/05 01:20:59;;;;;;;1.90;1.80;;;20.70;99.90;;;;;;5239350;28;20017;-61
2022/08/05 01:23:49;;;;;;;2.03;1.83;;;20.70;99.90;;;;;;5205310;28;20171;-63
2022/08/05 01:26:43;;;;;;;2.38;2.17;;;20.70;99.90;;;;;;5205312;28;20214;-61
2022/08/05 01:29:23;;;;;;;2.17;1.67;;;20.70;99.90;;;;;;5221279;28;20172;-61
2022/08/05 01:32:01;;;;;;;2.08;1.77;;;20.60;99.90;;;;;;5238968;28;20027;-61
2022/08/05 01:34:38;;;;;;;2.40;1.95;;;20.60;99.90;;;;;;5221309;28;20084;-62
2022/08/05 01:37:31;;;;;;;2.88;1.70;;;20.60;99.90;;;;;;5239471;28;20017;-62
2022/08/05 01:40:05;;;;;;;3.13;1.85;;;20.60;99.90;;;;;;5221306;28;20321;-64
2022/08/05 01:42:38;;;;;;;1.95;1.77;;;20.50;99.90;;;;;;5221838;28;20037;-62
2022/08/05 01:45:19;;;;;;;3.90;1.90;;;20.50;99.90;;;;;;5204868;28;20025;-62
2022/08/05 01:47:56;;;;;;;2.33;1.65;;;20.50;99.90;;;;;;5238429;28;20314;-62
2022/08/05 01:53:59;;;;;;;2.80;2.10;;;20.50;99.90;;;;;;5238738;28;20017;-62
2022/08/05 01:56:35;;;;;;;1.95;1.58;;;20.50;99.90;;;;;;5204468;28;20036;-62
2022/08/05 01:59:12;;;;;;;2.42;1.65;;;20.40;99.90;;;;;;5217464;28;20025;-62
2022/08/05 02:01:48;;;;;;;2.40;2.03;;;20.40;99.90;;;;;;5239012;28;20040;-62
2022/08/05 02:04:21;;;;;;;6.10;2.00;;;20.40;99.90;;;;;;5238574;28;20031;-61
2022/08/05 02:06:55;;;;;;;2.10;1.83;;;20.40;99.90;;;;;;5194690;28;20049;-62
2022/08/05 02:09:26;;;;;;;2.20;2.00;;;20.30;99.90;;;;;;5239395;28;20021;-62
2022/08/05 02:12:15;;;;;;;2.40;1.80;;;20.40;99.90;;;;;;5220749;28;20043;-62
2022/08/05 02:15:07;;;;;;;1.90;1.70;;;20.30;99.90;;;;;;5220914;28;20298;-62
2022/08/05 02:17:52;;;;;;;2.63;2.08;;;20.20;99.90;;;;;;5220915;28;20071;-62
2022/08/05 02:20:25;;;;;;;;;;;20.20;99.90;;;;;;5239164;28;20305;-62
2022/08/05 02:23:00;;;;;;;2.88;2.00;;;20.20;99.90;;;;;;5238420;28;19900;-62
2022/08/05 02:25:37;;;;;;;3.05;1.70;;;20.20;99.90;;;;;;5241803;28;20294;-62
2022/08/05 02:28:15;;;;;;;2.42;1.80;;;20.10;99.90;;;;;;5242321;28;20025;-62
2022/08/05 02:30:54;;;;;;;2.30;2.08;;;20.10;99.90;;;;;;5243061;28;20025;-62
2022/08/05 02:33:26;;;;;;;2.15;1.95;;;20.00;99.90;;;;;;5192935;28;20028;-61
2022/08/05 02:36:00;;;;;;;2.25;1.90;;;20.00;99.90;;;;;;5195321;28;20035;-62
2022/08/05 02:38:32;;;;;;;3.70;1.90;;;20.00;99.90;;;;;;5200244;28;20342;-62
2022/08/05 02:41:10;;;;;;;3.90;1.90;;;20.00;99.90;;;;;;5217898;28;20216;-62
2022/08/05 02:43:43;;;;;;;2.25;1.90;;;20.00;99.90;;;;;;5217757;28;20047;-62
2022/08/05 02:46:16;;;;;;;2.10;1.90;;;19.90;99.90;;;;;;5208362;28;20056;-60
2022/08/05 02:48:51;;;;;;;2.65;2.45;;;19.90;99.90;;;;;;5209965;28;20054;-62
2022/08/05 02:51:23;;;;;;;2.08;1.88;;;19.90;99.90;;;;;;5212494;28;20021;-61
2022/08/05 02:53:57;;;;;;;2.42;1.83;;;19.80;99.90;;;;;;5216186;28;20372;-62
2022/08/05 02:56:29;;;;;;;1.95;1.77;;;19.70;99.90;;;;;;5211499;28;20024;-61
2022/08/05 02:59:07;;;;;;;3.28;2.15;;;19.70;99.90;;;;;;5192001;28;20021;-61
2022/08/05 03:01:40;;;;;;;3.70;1.98;;;19.70;99.90;;;;;;5224641;28;20023;-61
2022/08/05 03:04:15;;;;;;;1.95;1.73;;;19.70;99.90;;;;;;5241603;28;20027;-61
2022/08/05 03:06:47;;;;;;;2.60;2.40;;;19.70;99.90;;;;;;5213346;28;20067;-61
2022/08/05 03:09:18;;;;;;;2.75;2.03;;;19.60;99.90;;;;;;5241464;28;20027;-62
2022/08/05 03:11:50;;;;;;;2.83;2.20;;;19.60;99.90;;;;;;5241734;28;20312;-62
2022/08/05 03:14:21;;;;;;;2.17;1.98;;;19.60;99.90;;;;;;5241389;28;20028;-62
2022/08/05 03:16:55;;;;;;;1.90;1.80;;;19.50;99.90;;;;;;5223310;28;20025;-62
2022/08/05 03:19:26;;;;;;;2.55;2.22;;;19.50;99.90;;;;;;5207337;28;20033;-63
2022/08/05 03:21:57;;;;;;;2.83;2.22;;;19.50;99.90;;;;;;5223402;28;20029;-63
2022/08/05 03:24:36;;;;;;;3.40;2.17;;;19.50;99.90;;;;;;5240459;28;20324;-63
2022/08/05 03:27:10;;;;;;;3.05;1.95;;;19.40;99.90;;;;;;5240597;28;20025;-62
2022/08/05 03:29:48;;;;;;;3.20;2.38;;;19.50;99.90;;;;;;5206611;28;20191;-63
2022/08/05 03:32:19;;;;;;;3.38;2.10;;;19.40;99.90;;;;;;5224142;28;20045;-63
2022/08/05 03:34:51;;;;;;;3.28;2.10;;;19.40;99.90;;;;;;5239033;28;20290;-62
2022/08/05 03:37:28;;;;;;;2.63;2.22;;;19.50;99.90;;;;;;5241049;28;20022;-62
2022/08/05 03:40:07;;;;;;;2.30;2.08;;;19.50;99.90;;;;;;5223078;28;20035;-62
2022/08/05 03:42:41;;;;;;;2.42;2.20;;;19.50;99.90;;;;;;5241435;28;20024;-62
2022/08/05 03:45:16;;;;;;;3.03;2.13;;;19.50;99.90;;;;;;5223260;28;20037;-62
2022/08/05 03:47:48;;;;;;;3.40;2.40;;;19.50;99.90;;;;;;5240986;28;20059;-62
2022/08/05 03:50:22;;;;;;;2.35;2.15;;;19.50;99.90;;;;;;5239643;28;20039;-62
2022/08/05 03:53:17;;;;;;;2.30;2.00;;;19.50;99.90;;;;;;5222662;28;20236;-62
2022/08/05 03:55:58;;;;;;;2.25;2.05;;;19.50;99.90;;;;;;5223281;28;20031;-62
2022/08/05 03:58:38;;;;;;;2.75;2.10;;;19.50;99.90;;;;;;5223501;28;20033;-62
2022/08/05 04:01:13;;;;;;;2.22;1.88;;;19.60;99.90;;;;;;5222740;28;20035;-62
2022/08/05 04:03:47;;;;;;;;;;;19.70;99.90;;;;;;5217964;28;20027;-62
2022/08/05 04:06:22;;;;;;;2.33;1.97;;;19.80;99.90;;;;;;5204494;28;19920;-62
2022/08/05 04:08:56;;;;;;;2.58;2.22;;;19.90;99.90;;;;;;5216406;28;20021;-62
2022/08/05 04:11:28;;;;;;;4.00;2.00;;;20.00;99.90;;;;;;5216027;28;20043;-62
2022/08/05 04:14:05;;;;;;;4.70;2.17;;;20.10;99.90;;;;;;5215733;28;20025;-62
2022/08/05 04:16:39;;;;;;;2.20;2.00;;;20.30;99.90;;;;;;5198225;28;20218;-62
2022/08/05 04:19:12;;;;;;;3.40;2.10;;;20.60;99.90;;;;;;5215739;28;20020;-62
2022/08/05 04:21:45;;;;;;;6.10;2.63;;;20.70;99.90;;;;;;5214446;28;20346;-62
2022/08/05 04:24:19;;;;;;;4.45;2.58;;;20.80;99.90;;;;;;5213610;28;20040;-62
2022/08/05 04:26:50;;;;;;;2.72;2.30;;;20.90;99.90;;;;;;5214919;28;20184;-62
2022/08/05 04:29:25;;;;;;;2.45;2.25;;;21.00;99.90;;;;;;5182568;28;20031;-64
2022/08/05 04:31:58;;;;;;;2.67;1.95;;;21.20;99.90;;;;;;5197711;28;20031;-63
2022/08/05 04:34:32;;;;;;;3.63;2.38;;;21.30;99.90;;;;;;5218013;28;20035;-62
2022/08/05 04:37:03;;;;;;;5.75;2.50;;;21.40;99.90;;;;;;5226030;28;20024;-62
2022/08/05 04:39:37;;;;;;;2.53;1.95;;;21.60;99.90;;;;;;5197570;28;20203;-62
2022/08/05 04:42:17;;;;;;;2.70;2.00;;;21.60;99.90;;;;;;5215658;28;20164;-62
2022/08/05 04:44:48;;;;;;;3.63;2.30;;;21.80;99.90;;;;;;5197090;28;20033;-62
2022/08/05 04:47:19;;;;;;;2.90;2.30;;;22.00;99.90;;;;;;5214949;28;20241;-62
2022/08/05 04:49:56;;;;;;;4.65;2.80;;;22.00;99.90;;;;;;5215473;28;20239;-62
2022/08/05 04:52:29;;;;;;;3.55;2.78;;;22.00;99.90;;;;;;5217798;28;20024;-62
2022/08/05 04:55:01;;;;;;;2.78;2.28;;;22.10;99.90;;;;;;5215809;28;20039;-62
2022/08/05 04:57:32;;;;;;;2.40;2.20;;;22.20;99.90;;;;;;5218813;28;20235;-61
2022/08/05 05:00:07;;;;;;;2.53;2.10;;;22.20;99.90;;;;;;5228983;28;20114;-62
2022/08/05 05:02:42;;;;;;;2.55;2.35;;;22.30;99.90;;;;;;5244124;28;20016;-63
2022/08/05 05:05:16;;;;;;;3.05;2.25;;;22.40;99.90;;;;;;5227297;28;20229;-63
2022/08/05 05:07:54;;;;;;;4.68;1.88;;;22.50;99.90;;;;;;5251701;28;20225;-63
2022/08/05 05:10:28;;;;;;;2.60;2.33;;;22.60;99.90;;;;;;5260040;28;20051;-62
2022/08/05 05:13:03;;;;;;;3.05;2.55;;;22.70;99.90;;;;;;5259694;28;20046;-62
2022/08/05 05:15:35;;;;;;;2.25;2.00;;;22.90;99.90;;;;;;5260162;28;20028;-62
2022/08/05 05:18:08;;;;;;;2.60;2.22;;;22.90;99.90;;;;;;5259588;28;20213;-62
2022/08/05 05:20:45;;;;;;;2.73;2.17;;;23.00;99.90;;;;;;5242470;28;20034;-62
2022/08/05 05:23:17;;;;;;;2.70;1.90;;;23.20;99.90;;;;;;5259860;28;20275;-63
2022/08/05 05:25:48;;;;;;;2.90;2.17;;;23.50;99.90;;;;;;5241940;28;20035;-62
2022/08/05 05:28:27;;;;;;;3.20;2.00;;;23.80;99.90;;;;;;5242127;28;20058;-61
2022/08/05 05:31:00;;;;;;;3.35;2.22;;;23.90;99.90;;;;;;5241561;28;20335;-62
2022/08/05 05:33:36;;;;;;;3.38;2.30;;;24.40;99.90;;;;;;5259702;28;20031;-63
2022/08/05 05:36:10;;;;;;;5.10;2.30;;;24.50;99.90;;;;;;5260470;28;20032;-63
2022/08/05 05:38:41;;;;;;;3.90;2.58;;;24.60;99.90;;;;;;5259337;28;20038;-62
2022/08/05 05:41:15;;;;;;;3.88;2.33;;;24.50;99.90;;;;;;5241389;28;20024;-63
2022/08/05 05:43:51;;;;;;;3.80;2.20;;;24.70;99.90;;;;;;5241475;28;20213;-63
2022/08/05 05:46:22;;;;;;;2.83;2.03;;;25.10;99.90;;;;;;5259080;28;20044;-62
2022/08/05 05:48:53;;;;;;;2.83;2.33;;;25.50;99.90;;;;;;5238397;28;20033;-62
2022/08/05 05:51:27;;;;;;;2.40;2.20;;;25.50;99.90;;;;;;5259740;28;20028;-62
2022/08/05 05:53:58;;;;;;;2.40;2.20;;;25.80;99.90;;;;;;5241847;28;20338;-62
2022/08/05 05:56:30;;;;;;;2.65;2.30;;;26.00;99.90;;;;;;5259905;28;20257;-64
2022/08/05 05:59:05;;;;;;;3.00;2.58;;;26.40;99.90;;;;;;5261809;28;20024;-63
2022/08/05 06:01:40;;;;;;;3.40;2.22;;;27.20;99.90;;;;;;5263525;28;20205;-63
2022/08/05 06:04:15;;;;;;;5.88;2.15;;;27.70;99.90;;;;;;5228872;28;20028;-63
2022/08/05 06:06:49;;;;;;;4.80;2.20;;;28.20;99.90;;;;;;5234711;28;20048;-64
2022/08/05 06:09:23;;;;;;;3.92;2.55;;;28.30;99.90;;;;;;5263651;28;20029;-63
2022/08/05 06:11:54;;;;;;;2.55;2.33;;;28.10;99.90;;;;;;5245187;28;20042;-62
2022/08/05 06:14:27;;;;;;;3.47;2.50;;;27.30;99.90;;;;;;5228514;28;20039;-62
2022/08/05 06:16:58;;;;;;;3.78;2.38;;;27.00;99.90;;;;;;5250369;28;20313;-62
2022/08/05 06:19:32;;;;;;;3.03;2.38;;;27.60;99.90;;;;;;5229931;28;20194;-62
2022/08/05 06:22:07;;;;;;;6.82;2.72;;;28.20;99.90;;;;;;5221521;28;20022;-62
2022/08/05 06:24:47;;;;;;;6.22;2.40;;;28.70;99.90;;;;;;5204465;28;20035;-64
2022/08/05 06:27:21;;;;;;;2.53;2.30;;;28.80;99.90;;;;;;5203229;28;20052;-62
2022/08/05 06:29:54;;;;;;;3.83;2.38;;;29.30;99.90;;;;;;5205851;28;20311;-62
2022/08/05 06:32:25;;;;;;;3.83;2.40;;;29.80;99.90;;;;;;5202109;28;20029;-63
2022/08/05 06:34:59;;;;;;;3.13;2.50;;;29.90;99.90;;;;;;5211843;28;20025;-63
2022/08/05 06:37:32;;;;;;;2.88;2.00;;;30.30;99.90;;;;;;5222014;28;20328;-64
2022/08/05 06:40:04;;;;;;;3.60;2.40;;;30.30;99.90;;;;;;5213467;28;20032;-63
2022/08/05 06:42:36;;;;;;;4.13;2.35;;;30.50;99.90;;;;;;5222595;28;20281;-63
2022/08/05 06:45:10;;;;;;;2.50;2.30;;;30.70;99.90;;;;;;5218634;28;20037;-63
2022/08/05 06:47:41;;;;;;;;;;;31.30;99.90;;;;;;5230694;28;20031;-63
2022/08/05 06:50:15;;;;;;;3.00;2.28;;;31.50;99.90;;;;;;5227299;28;19905;-64
2022/08/05 06:52:46;;;;;;;3.00;2.40;;;31.90;99.90;;;;;;5219736;28;20037;-64
2022/08/05 06:55:18;;;;;;;4.80;2.85;;;32.00;99.90;;;;;;5203585;28;20033;-63
2022/08/05 06:57:51;;;;;;;3.08;2.65;;;32.10;99.90;;;;;;5220806;28;20245;-63
2022/08/05 07:00:30;;;;;;;3.70;2.65;;;31.90;99.90;;;;;;5220948;28;20036;-63
2022/08/05 07:03:01;;;;;;;2.00;1.90;;;31.40;99.90;;;;;;5203016;28;20029;-63
2022/08/05 07:05:32;;;;;;;2.40;2.20;;;30.10;99.90;;;;;;5193601;28;20045;-63
2022/08/05 07:08:04;;;;;;;2.53;2.30;;;29.80;99.90;;;;;;5203430;28;20029;-62
2022/08/05 07:10:36;;;;;;;2.60;2.13;;;29.90;99.90;;;;;;5220152;28;20041;-63
2022/08/05 07:18:47;;;;;;;2.65;2.20;;;31.50;99.90;;;;;;5221278;28;20027;-63
2022/08/05 07:21:20;;;;;;;2.40;2.20;;;31.20;99.90;;;;;;5203384;28;20033;-63
2022/08/05 07:23:53;;;;;;;3.65;2.70;;;30.50;99.90;;;;;;5202780;28;20037;-62
2022/08/05 07:26:24;;;;;;;2.70;2.13;;;30.80;99.90;;;;;;5220845;28;20025;-62
2022/08/05 07:29:00;;;;;;;2.22;2.03;;;31.10;99.90;;;;;;5219266;28;20043;-62
2022/08/05 07:31:34;;;;;;;2.63;2.28;;;31.70;99.90;;;;;;5202535;28;20036;-63
2022/08/05 07:34:06;;;;;;;3.15;2.00;;;32.20;99.90;;;;;;5186628;28;20210;-62
2022/08/05 07:36:40;;;;;;;2.78;2.38;;;32.20;99.90;;;;;;5220300;28;20027;-62
2022/08/05 07:39:11;;;;;;;2.53;2.20;;;32.60;99.90;;;;;;5220148;28;20028;-63
2022/08/05 07:41:42;;;;;;;4.03;2.50;;;32.40;99.90;;;;;;5202130;28;20044;-63
2022/08/05 07:44:16;;;;;;;2.53;2.30;;;32.60;99.90;;;;;;5209427;28;20305;-63
2022/08/05 07:46:51;;;;;;;2.80;2.53;;;32.90;99.90;;;;;;5225601;28;20028;-63
2022/08/05 07:49:24;;;;;;;2.63;2.30;;;32.80;99.90;;;;;;5244214;28;20209;-63
2022/08/05 07:51:57;;;;;;;3.00;2.10;;;33.00;99.90;;;;;;5243439;28;20043;-62
2022/08/05 07:54:29;;;;;;;2.67;2.47;;;33.30;99.90;;;;;;5243388;28;20054;-62
2022/08/05 07:57:02;;;;;;;3.20;2.10;;;33.50;99.90;;;;;;5261071;28;20028;-62
2022/08/05 07:59:33;;;;;;;5.55;2.53;;;33.70;99.90;;;;;;5262070;28;20210;-62
2022/08/05 08:02:06;;;;;;;2.63;2.42;;;33.30;99.90;;;;;;5245059;28;20025;-62
2022/08/05 08:04:40;;;;;;;3.13;2.70;;;32.90;99.90;;;;;;5231770;28;20058;-62
2022/08/05 08:07:12;;;;;;;1.95;1.80;;;33.20;99.90;;;;;;5260401;28;20043;-62
2022/08/05 08:09:44;;;;;;;3.13;2.13;;;33.40;99.90;;;;;;5261043;28;20202;-63
2022/08/05 08:12:18;;;;;;;2.30;2.10;;;34.00;99.90;;;;;;5243339;28;20040;-63
2022/08/05 08:14:55;;;;;;;3.00;2.47;;;34.40;99.90;;;;;;5221724;28;20033;-63
2022/08/05 08:17:26;;;;;;;2.47;2.20;;;34.20;99.90;;;;;;5220276;28;20037;-62
2022/08/05 08:20:03;;;;;;;2.75;2.55;;;34.60;99.90;;;;;;5218841;28;20024;-64
2022/08/05 08:22:35;;;;;;;2.60;2.30;;;34.50;99.90;;;;;;5215486;28;20035;-64
2022/08/05 08:25:09;;;;;;;2.47;2.28;;;34.70;99.90;;;;;;5218057;28;20029;-62
2022/08/05 08:27:41;;;;;;;5.25;2.95;;;34.70;99.90;;;;;;5218961;28;20048;-63
2022/08/05 08:30:13;;;;;;;2.10;1.83;;;35.10;99.90;;;;;;5215980;28;20021;-62
2022/08/05 08:32:49;;;;;;;2.42;2.22;;;34.50;99.90;;;;;;5199818;28;20031;-62
2022/08/05 08:35:20;;;;;;;2.35;2.15;;;34.20;99.90;;;;;;5230163;28;20017;-61
2022/08/05 08:37:54;;;;;;;2.53;2.33;;;34.00;99.90;;;;;;5217565;28;20032;-62
2022/08/05 08:40:28;;;;;;;2.45;2.25;;;33.60;99.90;;;;;;5206351;28;20024;-63
2022/08/05 08:43:03;;;;;;;2.25;2.10;;;33.80;99.90;;;;;;5207503;28;20040;-63
2022/08/05 08:45:39;;;;;;;3.35;2.15;;;34.40;99.90;;;;;;5197461;28;20021;-62
2022/08/05 08:48:16;;;;;;;2.40;2.20;;;33.60;99.90;;;;;;5217709;28;20318;-62
2022/08/05 08:50:50;;;;;;;3.50;2.60;;;34.10;99.90;;;;;;5215948;28;20033;-62
2022/08/05 08:53:26;;;;;;;2.70;2.50;;;34.10;99.90;;;;;;5200779;28;20485;-64
2022/08/05 08:55:57;;;;;;;2.20;2.00;;;34.50;99.90;;;;;;5215507;28;20350;-64
2022/08/05 08:58:31;;;;;;;2.15;1.95;;;35.20;99.90;;;;;;5201338;28;20274;-64
2022/08/05 09:01:11;;;;;;;3.10;2.78;;;36.40;99.90;;;;;;5235474;28;20016;-63
2022/08/05 09:03:50;;;;;;;2.20;2.00;;;36.50;99.90;;;;;;5226295;28;20036;-63
2022/08/05 09:06:27;;;;;;;2.50;2.30;;;36.90;99.90;;;;;;5205728;28;20207;-62
2022/08/05 09:09:02;;;;;;;4.88;2.15;;;37.20;99.90;;;;;;5217282;28;20206;-65
2022/08/05 09:11:36;;;;;;;3.20;2.33;;;37.20;99.90;;;;;;5216492;28;20108;-63
2022/08/05 09:14:07;;;;;;;2.50;2.30;;;37.10;99.90;;;;;;5217673;28;20194;-63
2022/08/05 09:16:39;;;;;;;2.70;2.50;;;36.50;99.90;;;;;;5219575;28;20025;-61
2022/08/05 09:19:10;;;;;;;5.05;2.58;;;36.10;99.90;;;;;;5219101;28;20191;-62
2022/08/05 09:21:44;;;;;;;2.72;2.50;;;36.30;99.90;;;;;;5219807;28;20086;-63
2022/08/05 09:24:20;;;;;;;3.85;2.10;;;36.80;99.90;;;;;;5239585;28;20020;-64
2022/08/05 09:26:55;;;;;;;4.05;2.45;;;37.60;99.90;;;;;;5238364;28;20029;-62
2022/08/05 09:29:41;;;;;;;2.45;2.05;;;37.70;99.90;;;;;;5220904;28;20033;-63
2022/08/05 09:32:13;;;;;;;2.10;2.00;;;37.60;99.90;;;;;;5221043;28;20029;-64
2022/08/05 09:34:53;;;;;;;4.63;2.38;;;38.20;99.90;;;;;;5238875;28;20016;-63
2022/08/05 09:37:28;;;;;;;2.88;2.10;;;38.20;99.90;;;;;;5221485;28;20029;-62
2022/08/05 09:40:02;;;;;;;3.33;2.50;;;38.90;99.90;;;;;;5238489;28;20025;-61
2022/08/05 09:42:40;;;;;;;2.75;2.45;;;38.90;99.90;;;;;;5238462;28;20025;-62
2022/08/05 09:45:19;;;;;;;3.92;2.20;;;38.20;99.90;;;;;;5239085;28;20024;-65
2022/08/05 09:47:50;;;;;;;3.15;2.85;;;38.20;99.90;;;;;;5203892;28;20063;-62
2022/08/05 09:50:32;;;;;;;3.10;2.60;;;39.00;99.90;;;;;;5218371;28;20047;-64
2022/08/05 09:53:03;;;;;;;2.85;1.98;;;39.00;99.90;;;;;;5216856;28;20532;-62
2022/08/05 09:55:40;;;;;;;3.00;2.70;;;38.90;99.90;;;;;;5198388;28;20059;-62
2022/08/05 09:58:17;;;;;;;2.70;2.20;;;38.50;99.90;;;;;;5198707;28;20028;-63
2022/08/05 10:00:54;;;;;;;2.78;2.33;;;37.80;99.90;;;;;;5198679;28;20032;-63
2022/08/05 10:03:26;;;;;;;2.30;2.10;;;37.70;99.90;;;;;;5202017;28;20043;-64
2022/08/05 10:06:08;;;;;;;2.30;2.10;;;38.70;99.90;;;;;;5197610;28;20063;-63
2022/08/05 10:08:39;;;;;;;3.20;2.47;;;39.00;99.90;;;;;;5224211;28;20274;-63
2022/08/05 10:11:17;;;;;;;2.10;1.90;;;39.30;99.90;;;;;;5222403;28;20025;-63
2022/08/05 10:13:48;;;;;;;2.72;2.40;;;39.50;99.90;;;;;;5216049;28;20343;-62
2022/08/05 10:16:32;;;;;;;2.35;2.15;;;38.90;99.90;;;;;;5200350;28;20017;-65
2022/08/05 10:19:04;;;;;;;2.63;2.10;;;39.60;99.90;;;;;;5194884;28;20024;-63
2022/08/05 10:21:36;;;;;;;2.38;2.17;;;39.70;99.90;;;;;;5172904;28;20497;-63
2022/08/05 10:24:13;;;;;;;2.40;2.20;;;39.30;99.90;;;;;;5229121;28;20024;-64
2022/08/05 10:30:12;;;;;;;2.97;2.50;;;40.40;99.90;;;;;;5239105;28;20032;-62
2022/08/05 10:32:45;;;;;;;2.25;2.13;;;41.00;99.90;;;;;;5220943;28;20024;-64
2022/08/05 10:35:16;;;;;;;2.65;2.42;;;41.70;99.90;;;;;;5222299;28;20029;-63
2022/08/05 10:37:50;;;;;;;2.38;2.10;;;41.70;99.90;;;;;;5222207;28;20025;-63
2022/08/05 10:40:42;;;;;;;4.35;1.90;;;41.20;99.90;;;;;;5221684;28;20017;-63
2022/08/05 10:43:19;;;;;;;2.05;1.95;;;42.30;99.90;;;;;;5220729;28;20029;-62
2022/08/05 10:45:58;;;;;;;2.28;2.08;;;43.40;99.10;;;;;;5240681;28;20021;-62
2022/08/05 10:48:31;;;;;;;2.60;2.38;;;43.80;98.00;;;;;;5224380;28;20033;-62
2022/08/05 10:51:13;;;;;;;2.53;2.33;;;44.00;97.50;;;;;;5242153;28;20025;-63
2022/08/05 10:53:50;;;;;;;2.22;2.10;;;44.30;96.50;;;;;;5241632;28;20024;-63
2022/08/05 10:56:29;;;;;;;2.75;2.40;;;44.00;96.10;;;;;;5241127;28;20036;-63
2022/08/05 10:59:04;;;;;;;4.15;2.67;;;44.10;95.90;;;;;;5251931;28;20035;-63
2022/08/05 11:01:44;;;;;;;2.88;2.67;;;44.00;95.00;;;;;;5262481;28;20032;-63
2022/08/05 11:04:21;;;;;;;2.72;2.53;;;44.20;95.70;;;;;;5250781;28;20028;-62
2022/08/05 11:07:03;;;;;;;2.60;2.40;;;44.80;94.80;;;;;;5244213;28;20035;-62
2022/08/05 11:09:48;;;;;;;2.37;2.17;;;45.40;94.00;;;;;;5262565;28;20035;-63
2022/08/05 11:12:42;;;;;;;2.75;2.45;;;45.90;93.00;;;;;;5261056;28;20028;-62
2022/08/05 11:15:34;;;;;;;2.50;2.30;;;44.90;93.30;;;;;;5262225;28;20031;-63
2022/08/05 11:18:28;;;;;;;2.97;2.65;;;44.50;93.00;;;;;;5262659;28;20024;-62
2022/08/05 11:21:02;;;;;;;2.72;2.53;;;46.00;92.80;;;;;;5260783;28;20021;-63
2022/08/05 11:23:50;;;;;;;2.97;2.75;;;47.80;91.90;;;;;;5260767;28;20024;-63
2022/08/05 11:26:24;;;;;;;2.85;2.65;;;48.00;90.50;;;;;;5244129;28;20300;-62
2022/08/05 11:28:58;;;;;;;2.83;2.47;;;47.70;89.70;;;;;;5263427;28;20031;-62
2022/08/05 11:31:33;;;;;;;2.53;2.38;;;47.60;90.20;;;;;;5262462;28;20189;-64
2022/08/05 11:34:06;;;;;;;3.00;2.80;;;48.20;89.10;;;;;;5243547;28;20046;-64
2022/08/05 11:36:46;;;;;;;3.10;2.80;;;48.20;88.40;;;;;;5244265;28;20032;-63
2022/08/05 11:39:48;;;;;;;3.00;2.80;;;48.30;87.10;;;;;;5243889;28;20020;-64
2022/08/05 11:42:24;;;;;;;3.60;2.97;;;47.90;87.00;;;;;;5243997;28;20210;-62
2022/08/05 11:45:03;;;;;;;2.60;2.40;;;44.80;88.00;;;;;;5259898;28;20024;-63
2022/08/05 11:47:36;;;;;;;2.80;2.60;;;44.00;90.20;;;;;;5227229;28;20043;-63
2022/08/05 11:50:07;;;;;;;2.72;2.53;;;45.50;88.40;;;;;;5261438;28;20024;-64
2022/08/05 11:52:39;;;;;;;2.83;2.63;;;45.80;88.80;;;;;;5261428;28;20328;-63
2022/08/05 11:55:11;;;;;;;2.33;2.13;;;45.70;87.20;;;;;;5243253;28;20028;-63
2022/08/05 11:57:46;;;;;;;2.60;2.40;;;46.10;88.50;;;;;;5261252;28;20020;-63
2022/08/05 12:00:27;;;;;;;2.70;2.50;;;47.00;87.30;;;;;;5243514;28;20020;-62
2022/08/05 12:03:14;;;;;;;2.50;2.30;;;47.90;86.10;;;;;;5242625;28;20044;-63
2022/08/05 12:05:48;;;;;;;2.33;2.20;;;48.50;84.60;;;;;;5233080;28;20051;-63
2022/08/05 12:08:19;;;;;;;2.30;2.10;;;47.70;81.10;;;;;;5244054;28;20035;-63
2022/08/05 12:10:56;;;;;;;1.67;1.58;;;45.60;82.80;;;;;;5261212;28;20020;-63
2022/08/05 12:13:30;;;;;;;2.85;1.75;;;46.10;81.80;;;;;;5242664;28;20318;-63
2022/08/05 12:16:02;;;;;;;1.95;1.77;;;44.80;81.90;;;;;;5242115;28;20035;-62
2022/08/05 12:18:34;;;;;;;1.88;1.77;;;44.90;81.20;;;;;;5260660;28;20039;-63
2022/08/05 12:21:22;;;;;;;1.77;1.67;;;44.80;80.00;;;;;;5243540;28;20027;-63
2022/08/05 12:24:02;;;;;;;1.60;1.42;;;42.80;80.00;;;;;;5260963;28;20034;-62
2022/08/05 12:26:42;;;;;;;1.52;1.42;;;42.90;77.90;;;;;;5260565;28;20034;-62
2022/08/05 12:29:27;;;;;;;1.88;1.23;;;42.10;75.10;;;;;;5259669;28;20320;-62
2022/08/05 12:31:59;;;;;;;1.38;1.23;;;42.20;75.60;;;;;;5226989;28;20032;-62
2022/08/05 12:34:37;;;;;;;1.60;1.50;;;42.10;78.80;;;;;;5261069;28;20028;-61
2022/08/05 12:37:09;;;;;;;3.58;1.80;;;41.60;80.10;;;;;;5261436;28;20024;-62
2022/08/05 12:39:41;;;;;;;1.73;1.63;;;39.00;82.50;;;;;;5259267;28;20024;-62
2022/08/05 12:42:16;;;;;;;2.00;1.77;;;39.00;84.40;;;;;;5261569;28;20028;-62
2022/08/05 12:44:51;;;;;;;2.00;1.60;;;39.80;84.80;;;;;;5260464;28;20032;-61
2022/08/05 12:47:40;;;;;;;2.72;1.70;;;40.00;85.10;;;;;;5242669;28;20028;-62
2022/08/05 12:50:13;;;;;;;1.50;1.40;;;40.90;84.70;;;;;;5260182;28;20032;-62
2022/08/05 12:52:58;;;;;;;1.70;1.60;;;41.00;83.50;;;;;;5259762;28;20203;-63
2022/08/05 12:55:38;;;;;;;2.10;1.90;;;41.00;83.00;;;;;;5259331;28;20035;-63
2022/08/05 12:58:23;;;;;;;2.10;1.70;;;41.00;83.30;;;;;;5259215;28;20040;-64
2022/08/05 13:00:54;;;;;;;2.00;1.60;;;40.50;84.40;;;;;;5226400;28;20038;-63
2022/08/05 13:03:30;;;;;;;2.20;2.00;;;40.40;84.50;;;;;;5242451;28;20020;-62
2022/08/05 13:06:01;;;;;;;1.75;1.65;;;40.90;82.50;;;;;;5249253;28;20056;-62
2022/08/05 13:08:37;;;;;;;2.20;2.00;;;41.40;84.10;;;;;;5258936;28;20047;-64
2022/08/05 13:11:19;;;;;;;1.60;1.50;;;42.20;83.60;;;;;;5259848;28;20306;-62
2022/08/05 13:13:50;;;;;;;1.90;1.80;;;42.70;82.80;;;;;;5262152;28;20036;-63
2022/08/05 13:16:22;;;;;;;2.47;2.28;;;42.20;83.60;;;;;;5259209;28;20210;-63
2022/08/05 13:18:54;;;;;;;1.77;1.67;;;41.60;83.10;;;;;;5260492;28;20030;-62
2022/08/05 13:21:26;;;;;;;2.58;1.70;;;42.50;82.50;;;;;;5258189;28;20026;-63
2022/08/05 13:23:59;;;;;;;1.90;1.70;;;41.80;83.40;;;;;;5259790;28;20020;-62
2022/08/05 13:26:32;;;;;;;2.10;1.98;;;41.90;83.60;;;;;;5259820;28;20028;-62
2022/08/05 13:29:05;;;;;;;2.85;1.83;;;42.30;82.30;;;;;;5241845;28;20045;-63
2022/08/05 13:31:41;;;;;;;1.60;1.50;;;41.50;83.00;;;;;;5259573;28;20032;-64
2022/08/05 13:34:13;;;;;;;5.07;1.70;;;41.70;82.40;;;;;;5258457;28;20029;-63
2022/08/05 13:36:45;;;;;;;2.20;2.00;;;41.20;82.40;;;;;;5241595;28;20017;-62
2022/08/05 13:39:19;;;;;;;2.00;1.90;;;40.90;85.10;;;;;;5259643;28;20306;-63
2022/08/05 13:41:50;;;;;;;1.80;1.70;;;42.40;85.20;;;;;;5259998;28;20021;-63
2022/08/05 13:44:21;;;;;;;3.03;2.13;;;42.40;83.80;;;;;;5258539;28;20039;-63
2022/08/05 13:46:52;;;;;;;2.42;2.00;;;42.70;83.60;;;;;;5259990;28;20016;-63